createdAt,value
2024-02-01T00:01:46.301Z,29.87
2024-02-01T00:04:14.799Z,27.13
2024-02-01T00:06:44.210Z,25.60
2024-02-01T00:09:12.746Z,28.73
2024-02-01T00:11:42.816Z,24.17
2024-02-01T00:14:11.788Z,25.23
2024-02-01T00:16:40.220Z,22.40
2024-02-01T00:19:08.826Z,24.80
2024-02-01T00:21:37.405Z,25.23
2024-02-01T00:24:06.646Z,25.30
2024-02-01T00:26:35.189Z,25.10
2024-02-01T00:29:06.437Z,25.87
2024-02-01T00:31:37.801Z,21.13
2024-02-01T00:34:06.636Z,23.37
2024-02-01T00:36:35.172Z,21.90
2024-02-01T00:39:09.891Z,20.83
2024-02-01T00:41:38.348Z,22.33
2024-02-01T00:44:08.628Z,22.20
2024-02-01T00:46:37.720Z,22.80
2024-02-01T00:49:06.165Z,23.23
2024-02-01T00:51:34.660Z,29.80
2024-02-01T00:54:03.162Z,19.93
2024-02-01T00:56:31.746Z,21.63
2024-02-01T00:59:00.261Z,21.37
2024-02-01T01:01:30.129Z,23.03
2024-02-01T01:03:59.444Z,19.27
2024-02-01T01:06:29.177Z,24.13
2024-02-01T01:08:57.786Z,21.63
2024-02-01T01:11:27.137Z,22.83
2024-02-01T01:13:56.151Z,23.50
2024-02-01T01:16:25.145Z,24.33
2024-02-01T01:18:55.037Z,23.17
2024-02-01T01:21:23.675Z,23.90
2024-02-01T01:23:52.170Z,24.83
2024-02-01T01:26:24.309Z,22.37
2024-02-01T01:28:52.895Z,21.53
2024-02-01T01:31:21.357Z,23.30
2024-02-01T01:33:50.279Z,20.10
2024-02-01T01:36:20.345Z,25.53
2024-02-01T01:38:48.952Z,22.43
2024-02-01T01:41:17.586Z,21.33
2024-02-01T01:43:46.070Z,23.80
2024-02-01T01:46:14.572Z,22.57
2024-02-01T01:48:43.387Z,25.17
2024-02-01T01:51:12.307Z,25.93
2024-02-01T01:53:43.527Z,23.93
2024-02-01T01:56:14.173Z,22.77
2024-02-01T01:58:43.791Z,20.70
2024-02-01T02:01:13.947Z,20.47
2024-02-01T02:03:44.879Z,21.20
2024-02-01T02:06:13.393Z,21.83
2024-02-01T02:08:51.499Z,20.57
2024-02-01T02:11:20.095Z,25.83
2024-02-01T02:13:48.918Z,20.43
2024-02-01T02:16:18.295Z,25.90
2024-02-01T02:18:47.323Z,20.17
2024-02-01T02:21:20.828Z,20.53
2024-02-01T02:23:51.058Z,20.37
2024-02-01T02:26:19.699Z,22.20
2024-02-01T02:28:48.176Z,20.37
2024-02-01T02:31:16.578Z,19.60
2024-02-01T02:33:45.622Z,21.93
2024-02-01T02:36:14.214Z,19.63
2024-02-01T02:38:42.843Z,22.30
2024-02-01T02:41:12.934Z,20.03
2024-02-01T02:43:42.070Z,19.73
2024-02-01T02:46:10.437Z,19.03
2024-02-01T02:48:39.504Z,19.10
2024-02-01T02:51:09.037Z,19.20
2024-02-01T02:53:37.703Z,23.17
2024-02-01T02:56:08.558Z,19.30
2024-02-01T02:58:39.313Z,17.77
2024-02-01T03:01:09.498Z,19.43
2024-02-01T03:03:41.956Z,20.17
2024-02-01T03:06:11.339Z,20.83
2024-02-01T03:08:41.867Z,17.30
2024-02-01T03:11:11.948Z,18.40
2024-02-01T03:13:42.770Z,21.67
2024-02-01T03:16:19.260Z,20.20
2024-02-01T03:18:48.812Z,17.37
2024-02-01T03:21:19.177Z,19.70
2024-02-01T03:23:49.977Z,18.60
2024-02-01T03:26:19.223Z,21.07
2024-02-01T03:28:49.850Z,17.83
2024-02-01T03:31:22.261Z,17.70
2024-02-01T03:33:54.537Z,17.93
2024-02-01T03:36:23.030Z,16.13
2024-02-01T03:38:51.520Z,21.17
2024-02-01T03:41:20.463Z,17.53
2024-02-01T03:43:53.946Z,18.40
2024-02-01T03:46:24.257Z,18.77
2024-02-01T03:48:52.885Z,20.57
2024-02-01T03:51:21.721Z,17.30
2024-02-01T03:53:50.575Z,18.97
2024-02-01T03:56:25.013Z,20.43
2024-02-01T03:58:55.189Z,17.97
2024-02-01T04:01:26.136Z,17.97
2024-02-01T04:03:54.881Z,17.40
2024-02-01T04:06:24.854Z,18.57
2024-02-01T04:08:54.219Z,19.87
2024-02-01T04:11:22.963Z,18.07
2024-02-01T04:13:51.521Z,19.50
2024-02-01T04:16:21.675Z,19.93
2024-02-01T04:18:51.410Z,19.27
2024-02-01T04:21:20.557Z,21.20
2024-02-01T04:23:49.801Z,19.20
2024-02-01T04:26:22.304Z,20.47
2024-02-01T04:28:53.674Z,16.83
2024-02-01T04:31:25.733Z,15.87
2024-02-01T04:33:59.286Z,20.93
2024-02-01T04:36:29.152Z,17.70
2024-02-01T04:38:57.707Z,16.57
2024-02-01T04:41:26.178Z,19.13
2024-02-01T04:43:56.343Z,19.37
2024-02-01T04:46:26.711Z,15.00
2024-02-01T04:48:55.527Z,18.30
2024-02-01T04:51:24.118Z,17.87
2024-02-01T04:53:52.522Z,19.60
2024-02-01T04:56:21.104Z,15.10
2024-02-01T04:58:49.614Z,16.50
2024-02-01T05:01:18.185Z,15.77
2024-02-01T05:03:50.298Z,15.33
2024-02-01T05:06:20.963Z,15.73
2024-02-01T05:08:49.805Z,14.73
2024-02-01T05:11:21.274Z,13.43
2024-02-01T05:13:49.726Z,12.97
2024-02-01T05:16:18.275Z,15.00
2024-02-01T05:18:48.271Z,13.40
2024-02-01T05:21:17.008Z,16.13
2024-02-01T05:23:50.761Z,13.93
2024-02-01T05:26:19.444Z,14.33
2024-02-01T05:28:47.833Z,15.03
2024-02-01T05:31:16.453Z,14.53
2024-02-01T05:33:45.193Z,15.10
2024-02-01T05:36:15.489Z,12.83
2024-02-01T05:38:44.309Z,13.57
2024-02-01T05:41:14.052Z,11.73
2024-02-01T05:43:42.819Z,15.07
2024-02-01T05:46:15.983Z,17.17
2024-02-01T05:48:45.030Z,12.43
2024-02-01T05:51:15.781Z,12.90
2024-02-01T05:53:44.574Z,12.80
2024-02-01T05:56:13.717Z,15.23
2024-02-01T05:58:45.971Z,13.37
2024-02-01T06:01:18.570Z,14.70
2024-02-01T06:03:47.213Z,17.47
2024-02-01T06:06:17.243Z,18.03
2024-02-01T06:08:45.779Z,16.37
2024-02-01T06:11:14.330Z,15.63
2024-02-01T06:13:43.354Z,15.83
2024-02-01T06:16:14.242Z,14.13
2024-02-01T06:18:43.158Z,14.87
2024-02-01T06:21:18.290Z,13.97
2024-02-01T06:23:46.747Z,17.53
2024-02-01T06:26:22.344Z,13.63
2024-02-01T06:28:50.823Z,16.33
2024-02-01T06:31:19.720Z,19.17
2024-02-01T06:33:51.920Z,18.40
2024-02-01T06:36:25.344Z,15.30
2024-02-01T06:39:13.684Z,11.43
2024-02-01T06:42:03.223Z,11.43
2024-02-01T06:44:33.051Z,15.13
2024-02-01T06:47:13.686Z,12.37
2024-02-01T06:50:10.451Z,13.77
2024-02-01T06:52:44.759Z,11.70
2024-02-01T06:55:45.290Z,14.50
2024-02-01T06:58:17.726Z,12.77
2024-02-01T07:01:03.264Z,12.63
2024-02-01T07:03:45.947Z,12.50
2024-02-01T07:06:29.791Z,13.17
2024-02-01T07:09:18.274Z,12.40
2024-02-01T07:12:00.987Z,14.57
2024-02-01T07:14:38.311Z,14.50
2024-02-01T07:17:21.282Z,11.20
2024-02-01T07:19:57.421Z,12.97
2024-02-01T07:23:01.464Z,10.73
2024-02-01T07:25:48.807Z,11.10
2024-02-01T07:28:38.964Z,10.70
2024-02-01T07:31:25.904Z,16.07
2024-02-01T07:34:11.900Z,12.73
2024-02-01T07:36:58.349Z,12.40
2024-02-01T07:39:44.214Z,12.60
2024-02-01T07:42:31.498Z,14.47
2024-02-01T07:45:17.539Z,14.37
2024-02-01T07:48:04.109Z,11.07
2024-02-01T07:50:50.187Z,15.47
2024-02-01T07:53:36.158Z,12.67
2024-02-01T07:56:23.193Z,14.53
2024-02-01T07:58:54.592Z,10.80
2024-02-01T08:01:25.899Z,10.50
2024-02-01T08:04:13.982Z,14.77
2024-02-01T08:07:00.118Z,13.53
2024-02-01T08:09:29.227Z,10.47
2024-02-01T08:11:57.838Z,13.27
2024-02-01T08:14:28.523Z,9.73
2024-02-01T08:16:57.411Z,12.07
2024-02-01T08:19:34.652Z,13.73
2024-02-01T08:22:10.453Z,14.40
2024-02-01T08:24:39.162Z,10.33
2024-02-01T08:27:09.284Z,12.97
2024-02-01T08:29:40.867Z,16.97
2024-02-01T08:32:20.734Z,11.93
2024-02-01T08:34:49.653Z,11.63
2024-02-01T08:37:18.514Z,15.43
2024-02-01T08:39:47.716Z,8.50
2024-02-01T08:42:16.449Z,10.67
2024-02-01T08:44:46.325Z,10.50
2024-02-01T08:47:15.170Z,10.90
2024-02-01T08:49:43.941Z,12.20
2024-02-01T08:52:15.555Z,12.10
2024-02-01T08:54:48.488Z,11.07
2024-02-01T08:57:19.490Z,9.20
2024-02-01T08:59:49.471Z,9.70
2024-02-01T09:02:19.888Z,10.80
2024-02-01T09:04:53.805Z,11.17
2024-02-01T09:07:22.713Z,12.07
2024-02-01T09:09:51.794Z,13.23
2024-02-01T09:12:23.164Z,9.03
2024-02-01T09:14:53.099Z,10.40
2024-02-01T09:17:21.698Z,8.90
2024-02-01T09:19:50.209Z,8.33
2024-02-01T09:22:18.731Z,8.03
2024-02-01T09:24:47.306Z,9.13
2024-02-01T09:27:15.917Z,8.73
2024-02-01T09:29:46.126Z,8.10
2024-02-01T09:32:16.981Z,8.43
2024-02-01T09:34:46.097Z,7.27
2024-02-01T09:37:24.950Z,9.03
2024-02-01T09:39:53.907Z,8.70
2024-02-01T09:42:22.669Z,10.63
2024-02-01T09:44:51.511Z,8.50
2024-02-01T09:47:23.624Z,10.80
2024-02-01T09:49:52.179Z,9.43
2024-02-01T09:52:21.108Z,8.83
2024-02-01T09:54:49.797Z,8.50
2024-02-01T09:57:19.255Z,10.60
2024-02-01T09:59:47.637Z,12.03
2024-02-01T10:02:19.726Z,11.00
2024-02-01T10:04:52.538Z,9.87
2024-02-01T10:07:20.953Z,9.17
2024-02-01T10:09:53.394Z,11.33
2024-02-01T10:12:26.957Z,9.73
2024-02-01T10:14:55.532Z,9.97
2024-02-01T10:17:24.480Z,9.33
2024-02-01T10:19:55.571Z,7.40
2024-02-01T10:22:24.038Z,8.67
2024-02-01T10:24:59.283Z,11.63
2024-02-01T10:27:29.709Z,8.43
2024-02-01T10:29:58.874Z,8.67
2024-02-01T10:32:30.234Z,7.27
2024-02-01T10:35:00.964Z,9.07
2024-02-01T10:37:31.425Z,7.03
2024-02-01T10:40:07.933Z,9.53
2024-02-01T10:42:38.166Z,10.47
2024-02-01T10:45:11.955Z,7.63
2024-02-01T10:47:46.704Z,7.47
2024-02-01T10:50:19.623Z,6.80
2024-02-01T10:52:51.887Z,8.23
2024-02-01T10:55:21.816Z,10.10
2024-02-01T10:57:50.611Z,8.87
2024-02-01T11:00:22.740Z,8.40
2024-02-01T11:02:54.354Z,9.13
2024-02-01T11:05:31.142Z,9.97
2024-02-01T11:08:00.086Z,10.07
2024-02-01T11:10:29.446Z,9.17
2024-02-01T11:13:01.218Z,8.10
2024-02-01T11:15:32.402Z,8.70
2024-02-01T11:18:12.808Z,9.93
2024-02-01T11:20:42.752Z,9.13
2024-02-01T11:23:12.310Z,8.60
2024-02-01T11:25:41.959Z,9.97
2024-02-01T11:28:13.324Z,9.70
2024-02-01T11:31:00.766Z,10.03
2024-02-01T11:33:35.986Z,11.17
2024-02-01T11:36:08.150Z,9.07
2024-02-01T11:38:36.729Z,9.80
2024-02-01T11:41:05.372Z,11.27
2024-02-01T11:43:34.583Z,9.33
2024-02-01T11:46:03.323Z,9.77
2024-02-01T11:48:32.005Z,8.47
2024-02-01T11:51:01.207Z,7.63
2024-02-01T11:53:31.662Z,9.23
2024-02-01T11:56:00.452Z,8.53
2024-02-01T11:58:32.760Z,8.20
2024-02-01T12:01:07.030Z,9.43
2024-02-01T12:03:50.314Z,7.87
2024-02-01T12:06:20.966Z,7.73
2024-02-01T12:08:51.259Z,8.67
2024-02-01T12:11:25.223Z,7.30
2024-02-01T12:13:55.984Z,7.90
2024-02-01T12:16:32.119Z,8.10
2024-02-01T12:19:01.460Z,7.47
2024-02-01T12:21:30.787Z,6.97
2024-02-01T12:24:00.960Z,8.17
2024-02-01T12:26:31.123Z,7.03
2024-02-01T12:29:00.980Z,6.00
2024-02-01T12:31:32.760Z,6.07
2024-02-01T12:34:02.291Z,7.00
2024-02-01T12:36:32.159Z,6.50
2024-02-01T12:39:02.547Z,7.47
2024-02-01T12:41:36.033Z,5.93
2024-02-01T12:44:05.061Z,5.50
2024-02-01T12:46:33.632Z,6.73
2024-02-01T12:49:03.942Z,5.70
2024-02-01T12:51:33.092Z,6.47
2024-02-01T12:54:03.530Z,5.27
2024-02-01T12:56:33.457Z,5.30
2024-02-01T12:59:03.973Z,6.07
2024-02-01T13:01:38.211Z,7.67
2024-02-01T13:04:07.648Z,6.57
2024-02-01T13:06:36.264Z,6.27
2024-02-01T13:09:09.958Z,6.17
2024-02-01T13:11:38.677Z,5.57
2024-02-01T13:14:07.308Z,5.63
2024-02-01T13:16:35.775Z,5.20
2024-02-01T13:19:09.922Z,6.17
2024-02-01T13:21:41.674Z,6.50
2024-02-01T13:24:12.052Z,9.30
2024-02-01T13:26:40.549Z,5.67
2024-02-01T13:29:15.085Z,6.73
2024-02-01T13:31:46.679Z,5.30
2024-02-01T13:34:15.235Z,6.40
2024-02-01T13:36:43.946Z,5.87
2024-02-01T13:39:14.039Z,9.30
2024-02-01T13:41:43.529Z,7.40
2024-02-01T13:44:12.102Z,7.73
2024-02-01T13:46:41.277Z,7.57
2024-02-01T13:49:11.103Z,7.10
2024-02-01T13:51:41.013Z,6.57
2024-02-01T13:54:10.078Z,9.73
2024-02-01T13:56:40.154Z,13.73
2024-02-01T13:59:08.621Z,8.33
2024-02-01T14:01:37.306Z,6.93
2024-02-01T14:04:06.665Z,6.93
2024-02-01T14:06:35.319Z,6.30
2024-02-01T14:09:07.863Z,6.60
2024-02-01T14:11:39.922Z,7.57
2024-02-01T14:14:10.493Z,8.40
2024-02-01T14:16:40.207Z,6.43
2024-02-01T14:19:08.909Z,5.90
2024-02-01T14:21:39.104Z,6.60
2024-02-01T14:24:11.601Z,7.03
2024-02-01T14:26:40.028Z,5.70
2024-02-01T14:29:10.054Z,5.43
2024-02-01T14:31:38.692Z,5.40
2024-02-01T14:34:07.288Z,5.33
2024-02-01T14:36:36.185Z,6.60
2024-02-01T14:39:22.460Z,6.20
2024-02-01T14:41:52.295Z,5.67
2024-02-01T14:44:22.581Z,6.43
2024-02-01T14:46:51.028Z,6.13
2024-02-01T14:49:19.550Z,6.30
2024-02-01T14:51:48.297Z,5.93
2024-02-01T14:54:16.807Z,7.03
2024-02-01T14:56:45.429Z,6.17
2024-02-01T14:59:14.076Z,5.00
2024-02-01T15:01:44.430Z,5.40
2024-02-01T15:04:13.131Z,6.73
2024-02-01T15:06:47.766Z,5.03
2024-02-01T15:09:16.638Z,4.70
2024-02-01T15:11:50.973Z,6.60
2024-02-01T15:14:19.996Z,5.23
2024-02-01T15:16:50.397Z,6.03
2024-02-01T15:19:18.970Z,6.50
2024-02-01T15:21:50.222Z,6.13
2024-02-01T15:24:19.173Z,6.67
2024-02-01T15:26:47.716Z,11.40
2024-02-01T15:29:18.358Z,12.30
2024-02-01T15:31:47.168Z,11.60
2024-02-01T15:34:17.482Z,9.50
2024-02-01T15:36:46.222Z,7.50
2024-02-01T15:39:16.258Z,6.30
2024-02-01T15:41:45.496Z,5.17
2024-02-01T15:44:14.397Z,6.27
2024-02-01T15:46:44.451Z,5.87
2024-02-01T15:49:13.506Z,5.60
2024-02-01T15:51:44.630Z,6.13
2024-02-01T15:54:13.148Z,6.10
2024-02-01T15:56:41.597Z,6.10
2024-02-01T15:59:10.093Z,5.13
2024-02-01T16:01:38.592Z,5.17
2024-02-01T16:04:07.148Z,5.40
2024-02-01T16:06:35.631Z,3.83
2024-02-01T16:09:07.589Z,3.17
2024-02-01T16:11:39.089Z,4.00
2024-02-01T16:14:10.518Z,4.20
2024-02-01T16:16:42.384Z,3.37
2024-02-01T16:19:30.503Z,4.43
2024-02-01T16:21:59.035Z,6.20
2024-02-01T16:24:56.547Z,4.00
2024-02-01T16:27:59.085Z,5.87
2024-02-01T16:31:06.233Z,4.00
2024-02-01T16:33:44.497Z,3.10
2024-02-01T16:36:43.505Z,4.17
2024-02-01T16:39:18.739Z,4.23
2024-02-01T16:41:49.761Z,3.60
2024-02-01T16:44:46.210Z,3.73
2024-02-01T16:47:27.370Z,5.37
2024-02-01T16:49:57.123Z,4.13
2024-02-01T16:52:46.540Z,6.10
2024-02-01T16:55:41.031Z,4.70
2024-02-01T16:58:48.711Z,5.47
2024-02-01T17:01:38.318Z,11.77
2024-02-01T17:04:14.127Z,4.30
2024-02-01T17:06:43.728Z,3.60
2024-02-01T17:09:15.939Z,3.33
2024-02-01T17:11:55.460Z,3.20
2024-02-01T17:14:35.469Z,3.37
2024-02-01T17:17:06.513Z,4.13
2024-02-01T17:19:37.064Z,5.47
2024-02-01T17:22:14.216Z,3.07
2024-02-01T17:24:43.265Z,6.90
2024-02-01T17:27:12.164Z,4.13
2024-02-01T17:29:42.659Z,4.03
2024-02-01T17:32:12.942Z,3.90
2024-02-01T17:34:42.647Z,3.50
2024-02-01T17:37:36.992Z,4.87
2024-02-01T17:40:14.140Z,5.33
2024-02-01T17:42:44.173Z,5.83
2024-02-01T17:45:36.841Z,6.23
2024-02-01T17:48:15.000Z,5.37
2024-02-01T17:50:47.778Z,6.10
2024-02-01T17:53:19.861Z,4.93
2024-02-01T17:55:52.421Z,5.63
2024-02-01T17:58:42.567Z,5.40
2024-02-01T18:01:20.653Z,5.43
2024-02-01T18:03:52.539Z,7.20
2024-02-01T18:06:40.204Z,5.23
2024-02-01T18:09:11.062Z,5.67
2024-02-01T18:11:46.543Z,7.37
2024-02-01T18:14:16.322Z,5.83
2024-02-01T18:16:47.243Z,5.63
2024-02-01T18:19:23.047Z,5.40
2024-02-01T18:21:52.742Z,5.40
2024-02-01T18:24:37.776Z,8.00
2024-02-01T18:27:09.434Z,5.90
2024-02-01T18:29:55.329Z,5.50
2024-02-01T18:32:30.123Z,5.00
2024-02-01T18:35:00.215Z,5.27
2024-02-01T18:37:30.339Z,5.90
2024-02-01T18:39:59.109Z,5.27
2024-02-01T18:43:00.734Z,5.47
2024-02-01T18:45:41.490Z,5.77
2024-02-01T18:48:33.419Z,7.07
2024-02-01T18:51:05.667Z,6.70
2024-02-01T18:53:43.286Z,7.60
2024-02-01T18:56:23.508Z,6.67
2024-02-01T18:58:52.901Z,6.50
2024-02-01T19:01:23.056Z,9.13
2024-02-01T19:04:13.332Z,6.83
2024-02-01T19:06:43.588Z,6.43
2024-02-01T19:09:38.000Z,7.50
2024-02-01T19:12:10.200Z,13.47
2024-02-01T19:14:44.085Z,10.80
2024-02-01T19:17:23.402Z,8.30
2024-02-01T19:19:53.873Z,7.20
2024-02-01T19:22:37.312Z,8.27
2024-02-01T19:25:06.344Z,7.17
2024-02-01T19:27:40.815Z,6.70
2024-02-01T19:30:19.440Z,7.77
2024-02-01T19:32:50.309Z,7.50
2024-02-01T19:35:30.461Z,7.43
2024-02-01T19:38:06.004Z,6.53
2024-02-01T19:40:34.580Z,6.57
2024-02-01T19:43:03.714Z,8.40
2024-02-01T19:45:32.450Z,7.00
2024-02-01T19:48:01.203Z,7.13
2024-02-01T19:50:31.490Z,9.30
2024-02-01T19:53:00.025Z,6.67
2024-02-01T19:55:31.013Z,8.07
2024-02-01T19:58:00.215Z,7.53
2024-02-01T20:00:29.736Z,6.63
2024-02-01T20:02:58.494Z,6.13
2024-02-01T20:05:27.166Z,7.97
2024-02-01T20:07:57.347Z,6.50
2024-02-01T20:10:26.196Z,6.20
2024-02-01T20:12:55.034Z,7.60
2024-02-01T20:15:23.972Z,8.97
2024-02-01T20:17:54.992Z,7.10
2024-02-01T20:20:24.865Z,8.47
2024-02-01T20:22:54.699Z,7.27
2024-02-01T20:25:29.067Z,7.03
2024-02-01T20:28:02.422Z,7.47
2024-02-01T20:30:33.895Z,10.13
2024-02-01T20:33:02.990Z,7.33
2024-02-01T20:35:37.180Z,6.73
2024-02-01T20:38:09.757Z,8.20
2024-02-01T20:40:42.961Z,10.73
2024-02-01T20:43:17.469Z,8.63
2024-02-01T20:45:57.510Z,8.60
2024-02-01T20:48:41.618Z,9.60
2024-02-01T20:51:32.906Z,10.20
2024-02-01T20:54:01.737Z,9.57
2024-02-01T20:56:33.548Z,10.80
2024-02-01T20:59:03.758Z,9.97
2024-02-01T21:01:41.609Z,10.50
2024-02-01T21:04:23.739Z,15.27
2024-02-01T21:06:54.219Z,12.30
2024-02-01T21:09:30.444Z,10.30
2024-02-01T21:12:00.687Z,9.00
2024-02-01T21:14:47.955Z,9.17
2024-02-01T21:17:22.231Z,9.50
2024-02-01T21:19:52.160Z,8.93
2024-02-01T21:22:21.851Z,9.40
2024-02-01T21:24:57.978Z,9.47
2024-02-01T21:27:28.270Z,9.67
2024-02-01T21:29:56.894Z,10.00
2024-02-01T21:32:25.519Z,9.77
2024-02-01T21:34:55.249Z,9.93
2024-02-01T21:37:24.290Z,10.10
2024-02-01T21:39:56.633Z,10.97
2024-02-01T21:43:12.288Z,11.03
2024-02-01T21:45:43.624Z,10.27
2024-02-01T21:48:13.695Z,9.47
2024-02-01T21:50:44.065Z,10.57
2024-02-01T21:53:13.341Z,11.90
2024-02-01T21:55:43.695Z,11.97
2024-02-01T21:58:15.168Z,11.17
2024-02-01T22:00:44.127Z,13.70
2024-02-01T22:03:14.886Z,9.73
2024-02-01T22:05:43.673Z,10.53
2024-02-01T22:08:12.245Z,11.73
2024-02-01T22:10:42.583Z,10.43
2024-02-01T22:13:11.490Z,11.43
2024-02-01T22:15:42.491Z,11.83
2024-02-01T22:18:11.301Z,10.83
2024-02-01T22:20:39.857Z,11.97
2024-02-01T22:23:08.691Z,11.87
2024-02-01T22:25:37.178Z,17.10
2024-02-01T22:28:06.431Z,12.43
2024-02-01T22:30:35.398Z,12.23
2024-02-01T22:33:06.170Z,12.07
2024-02-01T22:35:35.455Z,11.13
2024-02-01T22:38:04.002Z,12.67
2024-02-01T22:40:32.554Z,11.23
2024-02-01T22:43:01.082Z,11.30
2024-02-01T22:45:30.480Z,9.67
2024-02-01T22:47:59.096Z,11.13
2024-02-01T22:50:29.136Z,10.57
2024-02-01T22:52:57.646Z,10.47
2024-02-01T22:55:26.653Z,10.10
2024-02-01T22:57:55.229Z,12.40
2024-02-01T23:00:25.566Z,10.23
2024-02-01T23:02:54.984Z,10.97
2024-02-01T23:05:23.602Z,10.20
2024-02-01T23:07:53.534Z,10.47
2024-02-01T23:10:22.618Z,10.40
2024-02-01T23:12:51.188Z,9.87
2024-02-01T23:15:19.762Z,11.97
2024-02-01T23:17:48.454Z,10.77
2024-02-01T23:20:18.231Z,10.93
2024-02-01T23:22:47.585Z,10.97
2024-02-01T23:25:18.482Z,10.60
2024-02-01T23:27:46.959Z,10.87
2024-02-01T23:30:16.991Z,10.70
2024-02-01T23:32:45.882Z,10.13
2024-02-01T23:35:14.768Z,11.20
2024-02-01T23:37:44.889Z,11.70
2024-02-01T23:40:15.060Z,10.13
2024-02-01T23:42:45.073Z,12.27
2024-02-01T23:45:13.655Z,11.87
2024-02-01T23:47:42.204Z,11.60
2024-02-01T23:50:11.401Z,13.83
2024-02-01T23:52:41.069Z,11.40
2024-02-01T23:55:10.830Z,14.27
2024-02-01T23:57:39.278Z,11.67
